createdAt,value
2019-04-16T00:00:29.140Z,42.63
2019-04-16T00:01:29.111Z,42.57
2019-04-16T00:02:29.137Z,42.62
2019-04-16T00:03:29.246Z,42.62
2019-04-16T00:04:29.597Z,42.57
2019-04-16T00:05:30.297Z,42.6
2019-04-16T00:06:29.226Z,42.57
2019-04-16T00:07:29.187Z,42.64
2019-04-16T00:08:29.197Z,42.56
2019-04-16T00:09:29.383Z,42.66
2019-04-16T00:10:29.204Z,42.62
2019-04-16T00:11:29.087Z,42.61
2019-04-16T00:12:29.172Z,42.62
2019-04-16T00:13:29.330Z,42.58
2019-04-16T00:14:29.241Z,42.6
2019-04-16T00:15:28.972Z,42.65
2019-04-16T00:16:28.910Z,42.61
2019-04-16T00:17:29.084Z,42.57
2019-04-16T00:18:29.074Z,42.58
2019-04-16T00:19:28.992Z,42.62
2019-04-16T00:20:29.220Z,42.57
2019-04-16T00:21:29.050Z,42.62
2019-04-16T00:22:29.149Z,42.64
2019-04-16T00:23:28.994Z,42.65
2019-04-16T00:24:29.090Z,42.62
2019-04-16T00:25:29.091Z,42.58
2019-04-16T00:26:29.125Z,42.58
2019-04-16T00:27:29.787Z,42.6
2019-04-16T00:28:31.717Z,42.58
2019-04-16T00:29:34.055Z,42.62
2019-04-16T00:30:29.164Z,42.62
2019-04-16T00:31:29.318Z,42.58
2019-04-16T00:32:29.185Z,42.62
2019-04-16T00:33:29.063Z,42.56
2019-04-16T00:34:29.220Z,42.55
2019-04-16T00:35:28.997Z,42.63
2019-04-16T00:36:29.076Z,42.6
2019-04-16T00:37:29.127Z,42.63
2019-04-16T00:38:41.658Z,42.63
2019-04-16T00:39:29.053Z,42.62
2019-04-16T00:40:29.150Z,42.59
2019-04-16T00:41:29.086Z,42.58
2019-04-16T00:42:29.073Z,42.63
2019-04-16T00:43:28.989Z,42.59
2019-04-16T00:44:29.137Z,42.58
2019-04-16T00:45:29.157Z,42.63
2019-04-16T00:46:29.132Z,42.6
2019-04-16T00:47:29.209Z,42.57
2019-04-16T00:48:29.217Z,42.67
2019-04-16T00:49:29.265Z,42.58
2019-04-16T00:50:29.192Z,42.58
2019-04-16T00:51:29.197Z,42.59
2019-04-16T00:52:29.229Z,42.6
2019-04-16T00:53:29.228Z,42.57
2019-04-16T00:54:28.961Z,42.55
2019-04-16T00:55:28.968Z,42.57
2019-04-16T00:56:29.034Z,42.55
2019-04-16T00:57:28.998Z,42.59
2019-04-16T00:58:29.021Z,42.6
2019-04-16T00:59:29.156Z,42.55
2019-04-16T01:00:31.644Z,42.54
2019-04-16T01:01:29.060Z,42.6
2019-04-16T01:02:29.157Z,42.53
2019-04-16T01:03:29.006Z,42.59
2019-04-16T01:04:29.072Z,42.56
2019-04-16T01:05:29.093Z,42.56
2019-04-16T01:06:29.103Z,42.6
2019-04-16T01:07:29.147Z,42.56
2019-04-16T01:08:29.049Z,42.56
2019-04-16T01:09:29.285Z,42.59
2019-04-16T01:10:29.212Z,42.57
2019-04-16T01:11:29.256Z,42.57
2019-04-16T01:12:29.196Z,42.55
2019-04-16T01:13:29.420Z,42.57
2019-04-16T01:14:29.132Z,42.58
2019-04-16T01:15:32.989Z,42.6
2019-04-16T01:16:33.803Z,42.56
2019-04-16T01:17:29.141Z,42.52
2019-04-16T01:18:29.023Z,42.58
2019-04-16T01:19:28.928Z,42.57
2019-04-16T01:20:29.193Z,42.56
2019-04-16T01:21:29.171Z,42.51
2019-04-16T01:22:29.149Z,42.53
2019-04-16T01:23:29.022Z,42.56
2019-04-16T01:24:29.223Z,42.57
2019-04-16T01:25:29.128Z,42.58
2019-04-16T01:26:29.169Z,42.53
2019-04-16T01:27:29.614Z,42.53
2019-04-16T01:28:32.961Z,42.56
2019-04-16T01:29:34.939Z,42.53
2019-04-16T01:30:29.578Z,42.55
2019-04-16T01:31:29.233Z,42.51
2019-04-16T01:32:29.215Z,42.53
2019-04-16T01:33:28.961Z,42.51
2019-04-16T01:34:29.010Z,42.52
2019-04-16T01:35:28.953Z,42.55
2019-04-16T01:36:29.041Z,42.54
2019-04-16T01:37:28.967Z,42.5
2019-04-16T01:38:29.063Z,42.55
2019-04-16T01:39:28.846Z,42.56
2019-04-16T01:40:28.960Z,42.53
2019-04-16T01:41:29.090Z,42.55
2019-04-16T01:42:29.062Z,42.61
2019-04-16T01:43:28.948Z,42.51
2019-04-16T01:44:30.023Z,42.55
2019-04-16T01:45:30.672Z,42.5
2019-04-16T01:46:33.828Z,42.51
2019-04-16T01:47:29.173Z,42.5
2019-04-16T01:48:29.135Z,42.54
2019-04-16T01:49:29.110Z,42.53
2019-04-16T01:50:29.484Z,42.57
2019-04-16T01:51:29.223Z,42.52
2019-04-16T01:52:29.447Z,42.54
2019-04-16T01:53:29.054Z,42.53
2019-04-16T01:54:28.982Z,42.57
2019-04-16T01:55:28.933Z,42.54
2019-04-16T01:56:29.403Z,42.56
2019-04-16T01:57:31.596Z,42.52
2019-04-16T01:58:34.916Z,42.52
2019-04-16T01:59:29.013Z,42.55
2019-04-16T02:00:29.071Z,42.52
2019-04-16T02:01:29.070Z,42.52
2019-04-16T02:02:29.075Z,42.52
2019-04-16T02:03:28.742Z,42.53
2019-04-16T02:04:29.315Z,42.51
2019-04-16T02:05:28.982Z,42.56
2019-04-16T02:06:29.198Z,42.57
2019-04-16T02:07:28.974Z,42.5
2019-04-16T02:08:32.135Z,42.53
2019-04-16T02:09:35.979Z,42.56
2019-04-16T02:10:29.243Z,42.54
2019-04-16T02:11:29.092Z,42.57
2019-04-16T02:12:29.182Z,42.52
2019-04-16T02:13:28.932Z,42.55
2019-04-16T02:14:28.906Z,42.5
2019-04-16T02:15:28.938Z,42.51
2019-04-16T02:16:28.960Z,42.55
2019-04-16T02:17:28.994Z,42.51
2019-04-16T02:18:30.671Z,42.56
2019-04-16T02:19:33.845Z,42.51
2019-04-16T02:20:29.012Z,42.53
2019-04-16T02:21:29.001Z,42.53
2019-04-16T02:22:29.023Z,42.48
2019-04-16T02:23:29.020Z,42.56
2019-04-16T02:24:29.074Z,42.53
2019-04-16T02:25:29.061Z,42.51
2019-04-16T02:26:29.100Z,42.52
2019-04-16T02:27:28.967Z,42.5
2019-04-16T02:28:29.432Z,42.56
2019-04-16T02:29:30.953Z,42.52
2019-04-16T02:30:29.184Z,42.53
2019-04-16T02:31:29.013Z,42.5
2019-04-16T02:32:29.271Z,42.51
2019-04-16T02:33:29.181Z,42.53
2019-04-16T02:34:28.991Z,42.51
2019-04-16T02:35:29.455Z,42.56
2019-04-16T02:36:29.143Z,42.49
2019-04-16T02:37:37.938Z,42.56
2019-04-16T02:38:29.154Z,42.52
2019-04-16T02:40:29.105Z,42.52
2019-04-16T02:41:29.099Z,42.5
2019-04-16T02:42:32.590Z,42.52
2019-04-16T02:43:29.009Z,42.49
2019-04-16T02:44:29.149Z,42.57
2019-04-16T02:45:29.129Z,42.49
2019-04-16T02:46:33.253Z,42.5
2019-04-16T02:47:29.442Z,42.53
2019-04-16T02:48:29.446Z,42.54
2019-04-16T02:49:29.496Z,42.57
2019-04-16T02:50:32.649Z,42.5
2019-04-16T02:51:29.351Z,42.51
2019-04-16T02:52:29.392Z,42.54
2019-04-16T02:53:29.081Z,42.5
2019-04-16T02:54:34.899Z,42.46
2019-04-16T02:55:29.005Z,42.45
2019-04-16T02:56:29.492Z,42.47
2019-04-16T02:57:29.462Z,42.53
2019-04-16T02:58:35.561Z,42.51
2019-04-16T02:59:28.930Z,42.54
2019-04-16T03:00:28.987Z,42.55
2019-04-16T03:01:29.100Z,42.51
2019-04-16T03:02:29.039Z,42.51
2019-04-16T03:03:28.957Z,42.51
2019-04-16T03:04:29.201Z,42.53
2019-04-16T03:05:30.119Z,42.53
2019-04-16T03:06:32.851Z,42.55
2019-04-16T03:07:29.108Z,42.53
2019-04-16T03:08:29.131Z,42.51
2019-04-16T03:09:29.114Z,42.51
2019-04-16T03:10:29.173Z,42.51
2019-04-16T03:11:29.216Z,42.53
2019-04-16T03:12:29.165Z,42.5
2019-04-16T03:13:29.052Z,42.54
2019-04-16T03:14:31.212Z,42.53
2019-04-16T03:15:34.052Z,42.52
2019-04-16T03:16:28.985Z,42.55
2019-04-16T03:17:29.056Z,42.49
2019-04-16T03:18:29.294Z,42.53
2019-04-16T03:19:29.031Z,42.51
2019-04-16T03:20:29.153Z,42.56
2019-04-16T03:21:29.030Z,42.55
2019-04-16T03:22:34.792Z,42.51
2019-04-16T03:23:28.786Z,42.46
2019-04-16T03:24:29.174Z,42.55
2019-04-16T03:25:29.104Z,42.51
2019-04-16T03:26:29.226Z,42.53
2019-04-16T03:27:29.097Z,42.51
2019-04-16T03:28:29.155Z,42.53
2019-04-16T03:29:31.603Z,42.52
2019-04-16T03:30:29.185Z,42.56
2019-04-16T03:31:28.987Z,42.52
2019-04-16T03:32:36.723Z,42.55
2019-04-16T03:33:29.330Z,42.52
2019-04-16T03:34:28.892Z,42.54
2019-04-16T03:35:29.051Z,42.55
2019-04-16T03:36:30.614Z,42.51
2019-04-16T03:37:33.996Z,42.52
2019-04-16T03:38:28.968Z,42.49
2019-04-16T03:39:29.045Z,42.48
2019-04-16T03:40:29.735Z,42.51
2019-04-16T03:41:29.001Z,42.54
2019-04-16T03:42:29.046Z,42.53
2019-04-16T03:43:33.336Z,42.59
2019-04-16T03:44:29.047Z,42.51
2019-04-16T03:45:29.045Z,42.51
2019-04-16T03:46:29.011Z,42.52
2019-04-16T03:47:28.957Z,42.57
2019-04-16T03:48:29.209Z,42.52
2019-04-16T03:49:28.950Z,42.58
2019-04-16T03:50:32.563Z,42.53
2019-04-16T03:51:28.990Z,42.53
2019-04-16T03:52:29.182Z,42.57
2019-04-16T03:53:29.079Z,42.57
2019-04-16T03:54:29.244Z,42.65
2019-04-16T03:55:29.006Z,42.62
2019-04-16T03:56:31.526Z,42.54
2019-04-16T03:57:34.256Z,42.52
2019-04-16T03:58:29.041Z,42.56
2019-04-16T03:59:32.372Z,42.57
2019-04-16T04:00:29.091Z,42.48
2019-04-16T04:01:30.038Z,42.47
2019-04-16T04:02:29.048Z,42.47
2019-04-16T04:03:28.991Z,42.45
2019-04-16T04:04:30.343Z,42.45
2019-04-16T04:05:29.086Z,42.33
2019-04-16T04:06:29.139Z,42.42
2019-04-16T04:07:29.156Z,42.42
2019-04-16T04:08:29.144Z,42.39
2019-04-16T04:09:29.105Z,42.32
2019-04-16T04:10:38.184Z,42.38
2019-04-16T04:11:29.179Z,42.35
2019-04-16T04:12:29.181Z,42.38
2019-04-16T04:13:29.441Z,42.4
2019-04-16T04:14:28.905Z,42.37
2019-04-16T04:15:29.240Z,42.39
2019-04-16T04:16:34.754Z,42.42
2019-04-16T04:17:28.969Z,42.36
2019-04-16T04:18:28.902Z,42.4
2019-04-16T04:19:28.900Z,42.4
2019-04-16T04:20:28.931Z,42.42
2019-04-16T04:21:28.973Z,42.37
2019-04-16T04:22:29.379Z,42.4
2019-04-16T04:23:29.745Z,42.37
2019-04-16T04:24:32.639Z,42.39
2019-04-16T04:25:29.001Z,42.35
2019-04-16T04:26:29.022Z,42.39
2019-04-16T04:27:29.028Z,42.42
2019-04-16T04:28:29.044Z,42.42
2019-04-16T04:29:29.173Z,42.41
2019-04-16T04:30:30.003Z,42.47
2019-04-16T04:31:33.382Z,42.45
2019-04-16T04:32:29.036Z,42.41
2019-04-16T04:33:29.179Z,42.46
2019-04-16T04:34:29.245Z,42.49
2019-04-16T04:35:28.951Z,42.45
2019-04-16T04:36:29.458Z,42.46
2019-04-16T04:37:32.370Z,42.48
2019-04-16T04:38:29.258Z,42.42
2019-04-16T04:39:29.637Z,42.47
2019-04-16T04:40:51.371Z,42.45
2019-04-16T04:41:28.981Z,42.49
2019-04-16T04:42:29.377Z,42.45
2019-04-16T04:43:33.293Z,42.47
2019-04-16T04:44:28.957Z,42.48
2019-04-16T04:45:29.124Z,42.49
2019-04-16T04:46:28.941Z,42.42
2019-04-16T04:47:29.073Z,42.46
2019-04-16T04:48:29.016Z,42.47
2019-04-16T04:49:31.451Z,42.41
2019-04-16T04:50:29.138Z,42.44
2019-04-16T04:51:29.053Z,42.5
2019-04-16T04:52:29.057Z,42.44
2019-04-16T04:53:29.074Z,42.41
2019-04-16T04:54:29.182Z,42.45
2019-04-16T04:55:29.212Z,42.39
2019-04-16T04:56:29.268Z,42.48
2019-04-16T04:57:32.316Z,42.44
2019-04-16T04:58:35.057Z,42.44
2019-04-16T04:59:29.167Z,42.46
2019-04-16T05:00:28.968Z,42.42
2019-04-16T05:01:28.894Z,42.45
2019-04-16T05:02:28.954Z,42.45
2019-04-16T05:03:28.940Z,42.38
2019-04-16T05:04:28.925Z,42.43
2019-04-16T05:05:29.207Z,42.42
2019-04-16T05:06:29.040Z,42.42
2019-04-16T05:07:29.653Z,42.4
2019-04-16T05:08:29.668Z,42.37
2019-04-16T05:09:37.137Z,42.38
2019-04-16T05:10:28.995Z,42.4
2019-04-16T05:11:29.030Z,42.4
2019-04-16T05:12:29.114Z,42.37
2019-04-16T05:13:29.019Z,42.42
2019-04-16T05:14:29.020Z,42.35
2019-04-16T05:15:30.500Z,42.35
2019-04-16T05:16:35.373Z,42.39
2019-04-16T05:17:29.059Z,42.36
2019-04-16T05:18:29.011Z,42.38
2019-04-16T05:19:29.202Z,42.34
2019-04-16T05:20:30.476Z,42.36
2019-04-16T05:21:29.031Z,42.31
2019-04-16T05:22:28.928Z,42.34
2019-04-16T05:23:29.101Z,42.31
2019-04-16T05:24:30.389Z,42.31
2019-04-16T05:25:34.747Z,42.34
2019-04-16T05:26:29.240Z,42.3
2019-04-16T05:27:30.090Z,42.33
2019-04-16T05:28:28.973Z,42.3
2019-04-16T05:29:29.032Z,42.31
2019-04-16T05:30:28.950Z,42.25
2019-04-16T05:31:31.588Z,42.28
2019-04-16T05:32:34.588Z,42.28
2019-04-16T05:33:28.982Z,42.25
2019-04-16T05:34:28.880Z,42.23
2019-04-16T05:35:29.038Z,42.28
2019-04-16T05:36:29.029Z,42.25
2019-04-16T05:37:29.149Z,42.23
2019-04-16T05:38:29.128Z,42.24
2019-04-16T05:39:29.204Z,42.2
2019-04-16T05:40:35.701Z,42.2
2019-04-16T05:41:29.090Z,42.24
2019-04-16T05:42:29.221Z,42.24
2019-04-16T05:43:31.206Z,42.24
2019-04-16T05:44:34.488Z,42.2
2019-04-16T05:45:28.932Z,42.23
2019-04-16T05:46:28.933Z,42.2
2019-04-16T05:47:28.896Z,42.17
2019-04-16T05:48:29.293Z,42.2
2019-04-16T05:49:28.903Z,42.18
2019-04-16T05:50:30.281Z,42.2
2019-04-16T05:51:32.407Z,42.12
2019-04-16T05:52:28.918Z,42.13
2019-04-16T05:53:29.145Z,42.17
2019-04-16T05:54:28.796Z,42.15
2019-04-16T05:55:28.965Z,42.16
2019-04-16T05:56:29.095Z,42.1
2019-04-16T05:57:28.997Z,42.16
2019-04-16T05:58:31.836Z,42.1
2019-04-16T05:59:34.772Z,42.1
2019-04-16T06:00:29.174Z,42.13
2019-04-16T06:01:29.010Z,42.05
2019-04-16T06:02:28.872Z,42.12
2019-04-16T06:03:29.076Z,41.37
2019-04-16T06:04:29.033Z,39.24
2019-04-16T06:05:29.239Z,37.57
2019-04-16T06:06:32.820Z,37.09
2019-04-16T06:07:30.505Z,36.48
2019-04-16T06:08:29.209Z,36.32
2019-04-16T06:09:29.237Z,35.77
2019-04-16T06:10:29.231Z,35.72
2019-04-16T06:11:36.922Z,35.5
2019-04-16T06:12:29.003Z,35.3
2019-04-16T06:13:29.055Z,35.37
2019-04-16T06:14:28.958Z,34.88
2019-04-16T06:15:29.151Z,35.3
2019-04-16T06:16:31.570Z,35.59
2019-04-16T06:17:33.131Z,36.56
2019-04-16T06:18:28.721Z,36.92
2019-04-16T06:19:29.018Z,37.12
2019-04-16T06:20:29.213Z,37.43
2019-04-16T06:21:29.118Z,37.96
2019-04-16T06:22:30.572Z,38
2019-04-16T06:23:33.054Z,38.18
2019-04-16T06:24:29.147Z,38.24
2019-04-16T06:25:29.161Z,38.23
2019-04-16T06:26:29.103Z,38.31
2019-04-16T06:27:29.126Z,38.42
2019-04-16T06:28:29.235Z,38.4
2019-04-16T06:29:29.747Z,38.52
2019-04-16T06:30:34.436Z,38.6
2019-04-16T06:31:29.212Z,38.69
2019-04-16T06:32:29.251Z,38.74
2019-04-16T06:33:28.875Z,38.78
2019-04-16T06:34:28.936Z,38.8
2019-04-16T06:35:44.226Z,38.89
2019-04-16T06:36:28.972Z,38.93
2019-04-16T06:37:28.923Z,38.93
2019-04-16T06:38:29.108Z,39.02
2019-04-16T06:39:30.915Z,39.1
2019-04-16T06:40:33.172Z,39.08
2019-04-16T06:41:48.674Z,39.2
2019-04-16T06:42:28.914Z,39.14
2019-04-16T06:43:28.999Z,39.2
2019-04-16T06:44:35.523Z,39.25
2019-04-16T06:45:29.107Z,39.25
2019-04-16T06:46:28.810Z,39.26
2019-04-16T06:47:29.036Z,39.39
2019-04-16T06:48:29.167Z,39.46
2019-04-16T06:49:29.133Z,39.42
2019-04-16T06:50:40.978Z,39.42
2019-04-16T06:51:32.201Z,39.5
2019-04-16T06:52:29.031Z,39.45
2019-04-16T06:53:31.210Z,39.55
2019-04-16T06:54:33.459Z,39.58
2019-04-16T06:55:29.040Z,39.6
2019-04-16T06:56:28.974Z,39.59
2019-04-16T06:57:28.968Z,39.6
2019-04-16T06:58:28.850Z,39.6
2019-04-16T06:59:31.263Z,39.73
2019-04-16T07:01:29.086Z,39.73
2019-04-16T07:02:28.916Z,39.72
2019-04-16T07:03:29.016Z,39.84
2019-04-16T07:04:31.185Z,39.8
2019-04-16T07:05:33.551Z,39.86
2019-04-16T07:06:29.102Z,39.82
2019-04-16T07:07:47.102Z,39.94
2019-04-16T07:08:42.178Z,39.94
2019-04-16T07:09:46.147Z,40.05
2019-04-16T07:10:45.101Z,40.07
2019-04-16T07:11:29.090Z,40.04
2019-04-16T07:12:29.590Z,40.09
2019-04-16T07:13:29.087Z,40.13
2019-04-16T07:14:29.505Z,40.13
2019-04-16T07:15:29.687Z,40.16
2019-04-16T07:16:29.485Z,40.18
2019-04-16T07:17:34.826Z,40.22
2019-04-16T07:18:28.895Z,40.21
2019-04-16T07:19:28.885Z,40.24
2019-04-16T07:20:29.700Z,40.34
2019-04-16T07:21:29.004Z,40.32
2019-04-16T07:22:28.964Z,40.39
2019-04-16T07:23:29.560Z,40.34
2019-04-16T07:24:40.058Z,40.4
2019-04-16T07:25:45.833Z,40.42
2019-04-16T07:26:29.736Z,40.39
2019-04-16T07:27:33.583Z,40.45
2019-04-16T07:28:30.002Z,40.43
2019-04-16T07:29:34.868Z,40.43
2019-04-16T07:30:30.510Z,40.56
2019-04-16T07:32:29.689Z,40.51
2019-04-16T07:33:29.299Z,40.48
2019-04-16T07:34:28.956Z,40.58
2019-04-16T07:35:29.462Z,40.55
2019-04-16T07:36:29.229Z,40.61
2019-04-16T07:37:34.091Z,40.61
2019-04-16T07:38:28.848Z,40.61
2019-04-16T07:39:30.352Z,40.63
2019-04-16T07:40:28.896Z,40.66
2019-04-16T07:41:29.016Z,40.7
2019-04-16T07:42:28.915Z,40.64
2019-04-16T07:43:32.291Z,40.72
2019-04-16T07:44:29.065Z,40.71
2019-04-16T07:45:29.015Z,40.69
2019-04-16T07:46:29.024Z,40.7
2019-04-16T07:47:28.933Z,40.76
2019-04-16T07:48:29.052Z,40.79
2019-04-16T07:49:28.991Z,40.79
2019-04-16T07:50:33.532Z,40.77
2019-04-16T07:51:29.019Z,40.81
2019-04-16T07:52:29.033Z,40.8
2019-04-16T07:53:29.204Z,40.85
2019-04-16T07:54:28.991Z,40.85
2019-04-16T07:55:29.019Z,40.79
2019-04-16T07:56:29.114Z,40.81
2019-04-16T07:57:29.401Z,40.86
2019-04-16T07:58:29.312Z,40.83
2019-04-16T07:59:33.317Z,40.83
2019-04-16T08:00:28.837Z,40.9
2019-04-16T08:01:28.897Z,40.89
2019-04-16T08:02:28.940Z,40.89
2019-04-16T08:03:28.884Z,40.89
2019-04-16T08:04:36.762Z,40.92
2019-04-16T08:05:29.091Z,40.9
2019-04-16T08:06:28.876Z,40.9
2019-04-16T08:07:29.341Z,40.92
2019-04-16T08:08:29.051Z,40.94
2019-04-16T08:09:34.009Z,40.97
2019-04-16T08:10:28.915Z,40.89
2019-04-16T08:11:28.964Z,40.96
2019-04-16T08:12:31.418Z,40.98
2019-04-16T08:13:34.710Z,40.96
2019-04-16T08:14:28.877Z,40.97
2019-04-16T08:15:29.026Z,40.94
2019-04-16T08:16:29.027Z,40.98
2019-04-16T08:17:29.103Z,41
2019-04-16T08:18:28.841Z,41.01
2019-04-16T08:19:38.031Z,40.95
2019-04-16T08:20:29.064Z,41.01
2019-04-16T08:21:29.079Z,41.04
2019-04-16T08:22:30.598Z,41.04
2019-04-16T08:23:28.838Z,41.05
2019-04-16T08:24:28.828Z,41.04
2019-04-16T08:25:35.206Z,41.05
2019-04-16T08:26:28.923Z,40.97
2019-04-16T08:27:28.882Z,41.06
2019-04-16T08:28:29.003Z,41.09
2019-04-16T08:29:28.998Z,41.09
2019-04-16T08:30:39.839Z,41.07
2019-04-16T08:31:28.867Z,41.1
2019-04-16T08:32:29.081Z,41.11
2019-04-16T08:33:29.709Z,41.07
2019-04-16T08:34:29.274Z,41.11
2019-04-16T08:35:29.022Z,41.1
2019-04-16T08:36:29.055Z,41.15
2019-04-16T08:37:29.081Z,41.08
2019-04-16T08:38:35.193Z,41.1
2019-04-16T08:39:29.174Z,41.16
2019-04-16T08:40:29.300Z,41.16
2019-04-16T08:41:29.203Z,41.14
2019-04-16T08:42:45.413Z,41.13
2019-04-16T08:43:30.782Z,41.13
2019-04-16T08:44:28.858Z,41.11
2019-04-16T08:45:28.893Z,41.12
2019-04-16T08:46:28.892Z,41.12
2019-04-16T08:47:28.734Z,41.1
2019-04-16T08:48:28.851Z,41.15
2019-04-16T08:49:28.993Z,41.16
2019-04-16T08:50:28.874Z,41.11
2019-04-16T08:51:38.231Z,41.16
2019-04-16T08:52:28.874Z,41.15
2019-04-16T08:53:28.910Z,41.12
2019-04-16T08:54:28.908Z,41.15
2019-04-16T08:55:29.056Z,41.18
2019-04-16T08:56:28.924Z,41.13
2019-04-16T08:57:33.139Z,41.16
2019-04-16T08:58:28.710Z,41.15
2019-04-16T08:59:29.070Z,41.13
2019-04-16T09:00:29.062Z,41.17
2019-04-16T09:01:28.995Z,41.18
2019-04-16T09:02:29.200Z,41.18
2019-04-16T09:03:31.034Z,41.18
2019-04-16T09:04:35.619Z,41.18
2019-04-16T09:05:29.065Z,41.18
2019-04-16T09:06:29.244Z,41.2
2019-04-16T09:07:28.942Z,41.21
2019-04-16T09:08:28.851Z,41.21
2019-04-16T09:09:28.890Z,41.17
2019-04-16T09:10:31.482Z,41.21
2019-04-16T09:11:28.997Z,41.17
2019-04-16T09:12:30.174Z,41.16
2019-04-16T09:13:28.871Z,41.2
2019-04-16T09:14:29.061Z,41.22
2019-04-16T09:15:28.982Z,41.23
2019-04-16T09:16:28.955Z,41.18
2019-04-16T09:17:29.033Z,41.18
2019-04-16T09:18:28.920Z,41.21
2019-04-16T09:19:28.996Z,41.22
2019-04-16T09:20:29.030Z,41.18
2019-04-16T09:21:28.981Z,41.16
2019-04-16T09:22:29.005Z,41.24
2019-04-16T09:23:29.108Z,41.22
2019-04-16T09:24:29.313Z,41.21
2019-04-16T09:25:29.003Z,41.23
2019-04-16T09:26:29.448Z,41.19
2019-04-16T09:27:34.858Z,41.2
2019-04-16T09:28:32.420Z,41.24
2019-04-16T09:29:28.771Z,41.26
2019-04-16T09:30:28.781Z,41.26
2019-04-16T09:31:28.817Z,41.26
2019-04-16T09:32:28.843Z,41.23
2019-04-16T09:33:34.764Z,41.29
2019-04-16T09:34:28.907Z,41.28
2019-04-16T09:35:28.846Z,41.26
2019-04-16T09:36:28.877Z,41.29
2019-04-16T09:37:29.661Z,41.28
2019-04-16T09:38:28.874Z,41.31
2019-04-16T09:39:29.238Z,41.28
2019-04-16T09:40:28.872Z,41.29
2019-04-16T09:41:28.910Z,41.25
2019-04-16T09:42:28.875Z,41.29
2019-04-16T09:43:28.895Z,41.32
2019-04-16T09:44:36.247Z,41.29
2019-04-16T09:45:29.594Z,41.33
2019-04-16T09:47:33.692Z,41.33
2019-04-16T09:48:35.808Z,41.29
2019-04-16T09:49:29.102Z,41.29
2019-04-16T09:50:29.018Z,41.32
2019-04-16T09:51:29.121Z,41.29
2019-04-16T09:52:28.922Z,41.27
2019-04-16T09:53:41.155Z,41.36
2019-04-16T09:54:28.844Z,41.31
2019-04-16T09:55:28.864Z,41.32
2019-04-16T09:56:30.974Z,41.3
2019-04-16T09:57:32.887Z,41.32
2019-04-16T09:58:29.155Z,41.29
2019-04-16T09:59:28.983Z,41.36
2019-04-16T10:00:29.078Z,41.32
2019-04-16T10:01:29.013Z,41.36
2019-04-16T10:02:28.983Z,41.33
2019-04-16T10:03:29.331Z,41.3
2019-04-16T10:04:29.070Z,41.33
2019-04-16T10:05:30.472Z,41.33
2019-04-16T10:06:29.315Z,41.33
2019-04-16T10:07:31.046Z,41.32
2019-04-16T10:08:30.090Z,41.34
2019-04-16T10:09:29.353Z,41.32
2019-04-16T10:10:29.568Z,41.39
2019-04-16T10:11:29.235Z,41.34
2019-04-16T10:12:28.912Z,41.38
2019-04-16T10:13:36.799Z,41.39
2019-04-16T10:14:28.802Z,41.34
2019-04-16T10:15:29.147Z,41.35
2019-04-16T10:16:28.912Z,41.38
2019-04-16T10:17:29.206Z,41.35
2019-04-16T10:18:31.943Z,41.41
2019-04-16T10:19:28.973Z,41.43
2019-04-16T10:20:29.195Z,41.39
2019-04-16T10:21:29.729Z,41.43
2019-04-16T10:22:28.944Z,41.35
2019-04-16T10:23:29.178Z,41.4
2019-04-16T10:24:28.938Z,41.43
2019-04-16T10:25:29.089Z,41.43
2019-04-16T10:26:29.161Z,41.44
2019-04-16T10:27:33.065Z,41.4
2019-04-16T10:28:29.587Z,41.4
2019-04-16T10:29:29.388Z,41.44
2019-04-16T10:30:30.974Z,41.48
2019-04-16T10:31:29.220Z,41.46
2019-04-16T10:32:29.131Z,41.45
2019-04-16T10:33:29.152Z,41.43
2019-04-16T10:34:29.013Z,41.39
2019-04-16T10:35:28.902Z,41.42
2019-04-16T10:36:28.952Z,41.47
2019-04-16T10:37:29.021Z,41.47
2019-04-16T10:38:28.895Z,41.42
2019-04-16T10:39:28.809Z,41.47
2019-04-16T10:40:29.462Z,41.45
2019-04-16T10:41:29.394Z,41.49
2019-04-16T10:42:28.912Z,41.48
2019-04-16T10:43:29.264Z,41.5
2019-04-16T10:44:29.414Z,41.49
2019-04-16T10:45:29.142Z,41.45
2019-04-16T10:46:29.063Z,41.46
2019-04-16T10:47:29.067Z,41.5
2019-04-16T10:48:29.145Z,41.5
2019-04-16T10:49:29.100Z,41.52
2019-04-16T10:50:29.125Z,41.48
2019-04-16T10:51:29.189Z,41.52
2019-04-16T10:52:29.169Z,41.53
2019-04-16T10:53:29.075Z,41.55
2019-04-16T10:54:29.124Z,41.55
2019-04-16T10:55:29.282Z,41.56
2019-04-16T10:56:28.913Z,41.49
2019-04-16T10:57:28.833Z,41.52
2019-04-16T10:58:28.990Z,41.55
2019-04-16T10:59:28.830Z,41.57
2019-04-16T11:00:29.125Z,41.61
2019-04-16T11:01:35.669Z,41.57
2019-04-16T11:02:29.542Z,41.57
2019-04-16T11:03:35.629Z,41.54
2019-04-16T11:04:28.993Z,41.54
2019-04-16T11:05:28.996Z,41.59
2019-04-16T11:06:29.262Z,41.58
2019-04-16T11:07:28.923Z,41.63
2019-04-16T11:08:28.994Z,41.55
2019-04-16T11:09:29.161Z,41.59
2019-04-16T11:10:29.271Z,41.58
2019-04-16T11:11:29.118Z,41.63
2019-04-16T11:12:29.288Z,41.62
2019-04-16T11:13:29.440Z,41.59
2019-04-16T11:14:29.033Z,41.57
2019-04-16T11:15:29.291Z,41.58
2019-04-16T11:16:29.423Z,41.58
2019-04-16T11:17:29.593Z,41.58
2019-04-16T11:18:29.122Z,41.56
2019-04-16T11:19:28.917Z,41.59
2019-04-16T11:20:29.202Z,41.57
2019-04-16T11:21:29.153Z,41.62
2019-04-16T11:22:28.931Z,41.66
2019-04-16T11:23:29.245Z,41.67
2019-04-16T11:24:30.112Z,41.61
2019-04-16T11:25:28.881Z,41.63
2019-04-16T11:26:28.834Z,41.63
2019-04-16T11:27:28.891Z,41.64
2019-04-16T11:28:29.232Z,41.64
2019-04-16T11:29:29.051Z,41.6
2019-04-16T11:30:28.928Z,41.64
2019-04-16T11:31:29.198Z,41.63
2019-04-16T11:32:29.295Z,41.63
2019-04-16T11:33:29.284Z,41.64
2019-04-16T11:34:29.255Z,41.64
2019-04-16T11:35:29.474Z,41.64
2019-04-16T11:36:32.331Z,41.64
2019-04-16T11:37:36.999Z,41.67
2019-04-16T11:38:29.006Z,41.66
2019-04-16T11:39:29.434Z,41.64
2019-04-16T11:40:28.989Z,41.63
2019-04-16T11:41:29.141Z,41.64
2019-04-16T11:42:28.986Z,41.64
2019-04-16T11:43:29.084Z,41.63
2019-04-16T11:44:29.264Z,41.7
2019-04-16T11:45:29.094Z,41.66
2019-04-16T11:46:29.035Z,41.68
2019-04-16T11:47:35.302Z,41.71
2019-04-16T11:48:29.049Z,41.66
2019-04-16T11:49:29.248Z,41.67
2019-04-16T11:50:29.222Z,41.62
2019-04-16T11:51:29.539Z,41.6
2019-04-16T11:52:29.440Z,41.59
2019-04-16T11:53:29.072Z,41.61
2019-04-16T11:54:28.970Z,41.6
2019-04-16T11:55:29.068Z,41.61
2019-04-16T11:56:29.291Z,41.63
2019-04-16T11:57:34.834Z,41.66
2019-04-16T11:58:29.164Z,41.7
2019-04-16T11:59:29.226Z,41.7
2019-04-16T12:00:29.213Z,41.63
2019-04-16T12:01:29.379Z,41.67
2019-04-16T12:02:29.332Z,41.64
2019-04-16T12:03:29.358Z,41.64
2019-04-16T12:04:29.416Z,41.66
2019-04-16T12:05:29.144Z,41.68
2019-04-16T12:06:29.803Z,41.71
2019-04-16T12:07:29.168Z,41.73
2019-04-16T12:08:29.186Z,41.71
2019-04-16T12:09:29.532Z,41.7
2019-04-16T12:10:29.199Z,41.73
2019-04-16T12:11:29.344Z,41.73
2019-04-16T12:12:29.357Z,41.73
2019-04-16T12:13:29.330Z,41.74
2019-04-16T12:14:42.255Z,41.75
2019-04-16T12:15:29.193Z,41.78
2019-04-16T12:16:29.153Z,41.81
2019-04-16T12:17:29.516Z,41.74
2019-04-16T12:18:33.196Z,41.76
2019-04-16T12:19:29.474Z,41.77
2019-04-16T12:20:29.614Z,41.78
2019-04-16T12:21:29.311Z,41.8
2019-04-16T12:22:29.215Z,41.76
2019-04-16T12:23:29.570Z,41.82
2019-04-16T12:24:29.435Z,41.76
2019-04-16T12:25:30.578Z,41.76
2019-04-16T12:26:29.056Z,41.78
2019-04-16T12:27:29.151Z,41.74
2019-04-16T12:28:29.249Z,41.82
2019-04-16T12:29:29.105Z,41.81
2019-04-16T12:30:29.186Z,41.83
2019-04-16T12:31:29.212Z,41.78
2019-04-16T12:32:29.389Z,41.78
2019-04-16T12:33:29.270Z,41.77
2019-04-16T12:34:29.412Z,41.8
2019-04-16T12:35:36.284Z,41.75
2019-04-16T12:36:29.423Z,41.83
2019-04-16T12:37:29.191Z,41.8
2019-04-16T12:38:29.246Z,41.82
2019-04-16T12:39:29.170Z,41.83
2019-04-16T12:40:29.631Z,41.81
2019-04-16T12:41:29.472Z,41.86
2019-04-16T12:42:29.014Z,41.83
2019-04-16T12:43:29.301Z,41.83
2019-04-16T12:44:46.485Z,41.78
2019-04-16T12:45:29.292Z,41.78
2019-04-16T12:46:29.428Z,41.83
2019-04-16T12:47:29.256Z,41.83
2019-04-16T12:48:29.189Z,41.79
2019-04-16T12:49:29.478Z,41.86
2019-04-16T12:50:29.929Z,41.82
2019-04-16T12:51:30.245Z,41.81
2019-04-16T12:52:29.151Z,41.81
2019-04-16T12:53:29.196Z,41.81
2019-04-16T12:54:29.534Z,41.83
2019-04-16T12:55:33.508Z,41.81
2019-04-16T12:56:29.132Z,41.85
2019-04-16T12:57:29.164Z,41.82
2019-04-16T12:58:28.716Z,41.81
2019-04-16T12:59:28.861Z,41.82